Trans Future 10 — 3FEN2 — position and weather

sailwx.info

Track history (hours):
 
Tides and Currents Weather Stations Pressure Air Temp Water Temp Dewpoint Dewpoint Depression Visibility Wind Speed Wind Dir Waves Ship Positions

Trans Future 10

Last reported at 2018-Feb-21 18:59 UTC. Time now 2018-Feb-21 19:18 UTC.
Position N 33°48' E 130°06'.

Length 166 m; draft 6.2 m.

Type: Cargo ship. MMSI: 356143000.

Date/timePositionNaut miles runAvg speedWind from/ knotsBaromVisibWave heightAir tempDewpointWater temp
2018-Feb-21 18:59N 33°48' E 130°06'0 0.8
2018-Feb-21 18:23N 33°49' E 130°06'0 0.6
2018-Feb-21 17:59N 33°49' E 130°05'0 0.7
2018-Feb-21 17:29N 33°49' E 130°05'0 0.7
2018-Feb-21 16:59N 33°49' E 130°05'0 0.7
2018-Feb-21 16:29N 33°50' E 130°05'0 0.6
2018-Feb-21 15:57N 33°50' E 130°05'4 9.8
2018-Feb-21 15:30N 33°51' E 130°10'918.0
2018-Feb-21 15:00N 33°55' E 130°20'918.8
2018-Feb-21 14:30N 33°59' E 130°30'918.3
2018-Feb-21 14:00N 34°02' E 130°41'816.3
2018-Feb-21 13:30N 34°01' E 130°50'5 9.2
2018-Feb-21 13:00N 33°57' E 130°52'3 6.6
2018-Feb-21 12:30N 33°55' E 130°56'4 7.6
2018-Feb-21 12:00N 33°58' E 130°58'4 7.6
2018-Feb-21 11:30N 33°57' E 131°03'5 9.0
2018-Feb-21 11:00N 33°55' E 131°07'611.6
2018-Feb-21 10:30N 33°52' E 131°13'918.5
2018-Feb-21 10:00N 33°50' E 131°24'918.7
2018-Feb-21 09:30N 33°48' E 131°35'917.8
2018-Feb-21 09:00N 33°44' E 131°45'918.1
2018-Feb-21 08:31N 33°36' E 131°51'917.8
2018-Feb-21 08:00N 33°28' E 131°55'917.9
2018-Feb-21 07:30N 33°20' E 131°59'817.2
2018-Feb-21 07:01N 33°13' E 132°05'25815.2
2018-Feb-20 14:04N 34°28' E 137°02'116.8
2018-Feb-20 14:00N 34°30' E 137°02'611.9
2018-Feb-20 13:30N 34°35' E 136°59'815.9
2018-Feb-20 13:00N 34°39' E 136°50'1019.3
2018-Feb-20 12:30N 34°48' E 136°46'917.6
2018-Feb-20 12:01N 34°57' E 136°47'713.4
2018-Feb-20 11:30N 35°02' E 136°51'1 1.4
2018-Feb-20 10:58N 35°03' E 136°51'0 0.0
2018-Feb-20 10:28N 35°03' E 136°51'0 0.0
2018-Feb-20 09:58N 35°03' E 136°51'0 0.0
2018-Feb-20 09:28N 35°03' E 136°51'0 0.0
2018-Feb-20 08:55N 35°03' E 136°51'0 0.0
2018-Feb-20 08:28N 35°03' E 136°51'0 0.0
2018-Feb-20 07:58N 35°03' E 136°51'0 0.0
2018-Feb-20 07:28N 35°03' E 136°51'0 0.0
2018-Feb-20 06:58N 35°03' E 136°51'0 0.1
2018-Feb-20 06:30N 35°03' E 136°51'1 2.6
2018-Feb-20 06:00N 35°03' E 136°53'0 0.1
2018-Feb-20 05:28N 35°03' E 136°53'0 0.0
2018-Feb-20 04:58N 35°03' E 136°53'0 0.0
2018-Feb-20 04:28N 35°03' E 136°53'0 0.0
2018-Feb-20 03:58N 35°03' E 136°53'0 0.0
2018-Feb-20 03:28N 35°03' E 136°53'0 0.0
2018-Feb-20 02:58N 35°03' E 136°53'0 0.0
2018-Feb-20 02:28N 35°03' E 136°53'0 0.0
2018-Feb-20 01:58N 35°03' E 136°53'0 0.0
2018-Feb-20 01:28N 35°03' E 136°53'0 0.0
2018-Feb-20 00:58N 35°03' E 136°53'0 0.0
2018-Feb-20 00:28N 35°03' E 136°53'0 0.0
2018-Feb-19 23:58N 35°03' E 136°53'0 0.0
2018-Feb-19 23:28N 35°03' E 136°53'0 0.0
2018-Feb-19 22:58N 35°03' E 136°53'0 0.0
2018-Feb-19 22:28N 35°03' E 136°53'0 0.0
2018-Feb-19 21:58N 35°03' E 136°53'0 0.5
2018-Feb-19 21:30N 35°03' E 136°53'5 9.5
2018-Feb-19 21:00N 34°59' E 136°49'612.6
2018-Feb-19 20:30N 34°53' E 136°47'816.4
2018-Feb-19 20:00N 34°45' E 136°49'917.0
2018-Feb-19 19:29N 34°38' E 136°55'714.9
2018-Feb-19 19:01N 34°33' E 137°01'1010.3
2018-Feb-19 18:00N 34°28' E 137°12'611.4
2018-Feb-19 17:30N 34°28' E 137°19'2516.8
2018-Feb-19 15:59N 34°30' E 137°50'4 8.5
2018-Feb-19 15:28N 34°26' E 137°48'715.5
2018-Feb-19 15:00N 34°27' E 137°57'1015.7
2018-Feb-19 14:20N 34°27' E 138°09'3 8.6
2018-Feb-19 13:59N 34°26' E 138°06'6 7.7
2018-Feb-19 13:14N 34°28' E 138°12'415.2
2018-Feb-19 12:58N 34°28' E 138°17'715.5
2018-Feb-19 12:30N 34°29' E 138°26'815.6
2018-Feb-19 11:59N 34°30' E 138°36'715.5
2018-Feb-19 11:30N 34°31' E 138°45'815.4
2018-Feb-19 11:00N 34°31' E 138°54'815.0
2018-Feb-19 10:30N 34°36' E 139°01'1117.5
2018-Feb-19 09:53N 34°45' E 139°09'616.8
2018-Feb-19 09:30N 34°50' E 139°13'816.3
2018-Feb-19 09:00N 34°55' E 139°21'816.3
2018-Feb-19 08:30N 34°59' E 139°29'816.3
2018-Feb-19 08:00N 35°03' E 139°38'815.9
2018-Feb-19 07:30N 35°09' E 139°44'612.5
2018-Feb-19 07:01N 35°15' E 139°46'611.8
2018-Feb-19 06:31N 35°20' E 139°43'612.2
2018-Feb-19 06:01N 35°26' E 139°42'1 2.5
2018-Feb-19 05:30N 35°27' E 139°41'0 0.0
2018-Feb-19 05:00N 35°27' E 139°41'0 0.0
2018-Feb-19 04:30N 35°27' E 139°41'0 0.0
2018-Feb-19 04:00N 35°27' E 139°41'0 0.0
2018-Feb-19 03:30N 35°27' E 139°41'0 0.0
2018-Feb-19 03:00N 35°27' E 139°41'0 0.0
2018-Feb-19 02:30N 35°27' E 139°41'0 0.0
2018-Feb-19 02:00N 35°27' E 139°41'0 0.0
2018-Feb-19 01:30N 35°27' E 139°41'0 0.0
2018-Feb-19 01:00N 35°27' E 139°41'0 0.0
2018-Feb-19 00:30N 35°27' E 139°41'0 0.0
2018-Feb-19 00:01N 35°27' E 139°41'0 0.0
2018-Feb-18 23:30N 35°27' E 139°41'0 0.0
2018-Feb-18 23:00N 35°27' E 139°41'0 0.0
2018-Feb-18 22:30N 35°27' E 139°41'0 0.0
2018-Feb-18 22:00N 35°27' E 139°41'2 3.9
2018-Feb-18 21:30N 35°26' E 139°43'611.7
2018-Feb-18 21:00N 35°20' E 139°43'612.4
2018-Feb-18 20:30N 35°14' E 139°47'510.8
2018-Feb-18 20:00N 35°09' E 139°47'510.0
2018-Feb-18 19:31N 35°04' E 139°45'815.4
2018-Feb-18 18:59N 34°56' E 139°42'1019.3
2018-Feb-18 18:28N 34°46' E 139°42'1019.2
2018-Feb-18 17:56N 34°37' E 139°39'1018.8
2018-Feb-18 17:25N 34°27' E 139°36'3 5.7
2018-Feb-18 16:50N 34°24' E 139°34'616.4
2018-Feb-18 16:27N 34°30' E 139°29'817.1
2018-Feb-18 16:00N 34°35' E 139°22'917.7
2018-Feb-18 15:30N 34°34' E 139°12'918.2
2018-Feb-18 15:00N 34°32' E 139°01'918.5
2018-Feb-18 14:30N 34°31' E 138°50'918.3
2018-Feb-18 13:59N 34°30' E 138°38'1018.1
2018-Feb-18 13:28N 34°28' E 138°27'918.1
2018-Feb-18 12:58N 34°27' E 138°16'1018.5
2018-Feb-18 12:26N 34°24' E 138°05'93618.3
2018-Feb-16 09:12N 24°12' E 124°33'718.5
2018-Feb-16 08:48N 24°09' E 124°26'2118.4
2018-Feb-16 07:41N 24°02' E 124°05'319.3
2018-Feb-16 07:30N 24°01' E 124°01'919.2
2018-Feb-16 07:00N 23°57' E 123°52'62219.3
2018-Feb-14 22:48N 14°05' E 120°31'2417.9
2018-Feb-14 21:29N 13°42' E 120°40'12 0.6
2018-Feb-13 23:44N 13°52' E 120°33'520.4
2018-Feb-13 23:29N 13°58' E 120°33'2919.6
2018-Feb-13 22:01N 14°22' E 120°18'016.0
2018-Feb-13 22:01N 14°22' E 120°18'1119.8
2018-Feb-13 21:28N 14°31' E 120°11'920.1
2018-Feb-13 21:00N 14°38' E 120°05'1019.7
2018-Feb-13 20:31N 14°46' E 119°59'11117.8
2018-Feb-13 14:16N 16°37' E 119°58'  
Track history (hours):
 
Tides and Currents Weather Stations Pressure Air Temp Water Temp Dewpoint Dewpoint Depression Visibility Wind Speed Wind Dir Waves Ship Positions

Trans Future 10

Last reported at 2018-Feb-21 18:59 UTC. Time now 2018-Feb-21 19:18 UTC.
Position N 33°48' E 130°06'.

Length 166 m; draft 6.2 m.

Type: Cargo ship. MMSI: 356143000.

Date/timePositionNaut miles runAvg speedWind from/ knotsBaromVisibWave heightAir tempDewpointWater temp
2018-Feb-21 18:59N 33°48' E 130°06'0 0.8
2018-Feb-21 18:23N 33°49' E 130°06'0 0.6
2018-Feb-21 17:59N 33°49' E 130°05'0 0.7
2018-Feb-21 17:29N 33°49' E 130°05'0 0.7
2018-Feb-21 16:59N 33°49' E 130°05'0 0.7
2018-Feb-21 16:29N 33°50' E 130°05'0 0.6
2018-Feb-21 15:57N 33°50' E 130°05'4 9.8
2018-Feb-21 15:30N 33°51' E 130°10'918.0
2018-Feb-21 15:00N 33°55' E 130°20'918.8
2018-Feb-21 14:30N 33°59' E 130°30'918.3
2018-Feb-21 14:00N 34°02' E 130°41'816.3
2018-Feb-21 13:30N 34°01' E 130°50'5 9.2
2018-Feb-21 13:00N 33°57' E 130°52'3 6.6
2018-Feb-21 12:30N 33°55' E 130°56'4 7.6
2018-Feb-21 12:00N 33°58' E 130°58'4 7.6
2018-Feb-21 11:30N 33°57' E 131°03'5 9.0
2018-Feb-21 11:00N 33°55' E 131°07'611.6
2018-Feb-21 10:30N 33°52' E 131°13'918.5
2018-Feb-21 10:00N 33°50' E 131°24'918.7
2018-Feb-21 09:30N 33°48' E 131°35'917.8
2018-Feb-21 09:00N 33°44' E 131°45'918.1
2018-Feb-21 08:31N 33°36' E 131°51'917.8
2018-Feb-21 08:00N 33°28' E 131°55'917.9
2018-Feb-21 07:30N 33°20' E 131°59'817.2
2018-Feb-21 07:01N 33°13' E 132°05'25815.2
2018-Feb-20 14:04N 34°28' E 137°02'116.8
2018-Feb-20 14:00N 34°30' E 137°02'611.9
2018-Feb-20 13:30N 34°35' E 136°59'815.9
2018-Feb-20 13:00N 34°39' E 136°50'1019.3
2018-Feb-20 12:30N 34°48' E 136°46'917.6
2018-Feb-20 12:01N 34°57' E 136°47'713.4
2018-Feb-20 11:30N 35°02' E 136°51'1 1.4
2018-Feb-20 10:58N 35°03' E 136°51'0 0.0
2018-Feb-20 10:28N 35°03' E 136°51'0 0.0
2018-Feb-20 09:58N 35°03' E 136°51'0 0.0
2018-Feb-20 09:28N 35°03' E 136°51'0 0.0
2018-Feb-20 08:55N 35°03' E 136°51'0 0.0
2018-Feb-20 08:28N 35°03' E 136°51'0 0.0
2018-Feb-20 07:58N 35°03' E 136°51'0 0.0
2018-Feb-20 07:28N 35°03' E 136°51'0 0.0
2018-Feb-20 06:58N 35°03' E 136°51'0 0.1
2018-Feb-20 06:30N 35°03' E 136°51'1 2.6
2018-Feb-20 06:00N 35°03' E 136°53'0 0.1
2018-Feb-20 05:28N 35°03' E 136°53'0 0.0
2018-Feb-20 04:58N 35°03' E 136°53'0 0.0
2018-Feb-20 04:28N 35°03' E 136°53'0 0.0
2018-Feb-20 03:58N 35°03' E 136°53'0 0.0
2018-Feb-20 03:28N 35°03' E 136°53'0 0.0
2018-Feb-20 02:58N 35°03' E 136°53'0 0.0
2018-Feb-20 02:28N 35°03' E 136°53'0 0.0
2018-Feb-20 01:58N 35°03' E 136°53'0 0.0
2018-Feb-20 01:28N 35°03' E 136°53'0 0.0
2018-Feb-20 00:58N 35°03' E 136°53'0 0.0
2018-Feb-20 00:28N 35°03' E 136°53'0 0.0
2018-Feb-19 23:58N 35°03' E 136°53'0 0.0
2018-Feb-19 23:28N 35°03' E 136°53'0 0.0
2018-Feb-19 22:58N 35°03' E 136°53'0 0.0
2018-Feb-19 22:28N 35°03' E 136°53'0 0.0
2018-Feb-19 21:58N 35°03' E 136°53'0 0.5
2018-Feb-19 21:30N 35°03' E 136°53'5 9.5
2018-Feb-19 21:00N 34°59' E 136°49'612.6
2018-Feb-19 20:30N 34°53' E 136°47'816.4
2018-Feb-19 20:00N 34°45' E 136°49'917.0
2018-Feb-19 19:29N 34°38' E 136°55'714.9
2018-Feb-19 19:01N 34°33' E 137°01'1010.3
2018-Feb-19 18:00N 34°28' E 137°12'611.4
2018-Feb-19 17:30N 34°28' E 137°19'2516.8
2018-Feb-19 15:59N 34°30' E 137°50'4 8.5
2018-Feb-19 15:28N 34°26' E 137°48'715.5
2018-Feb-19 15:00N 34°27' E 137°57'1015.7
2018-Feb-19 14:20N 34°27' E 138°09'3 8.6
2018-Feb-19 13:59N 34°26' E 138°06'6 7.7
2018-Feb-19 13:14N 34°28' E 138°12'415.2
2018-Feb-19 12:58N 34°28' E 138°17'715.5
2018-Feb-19 12:30N 34°29' E 138°26'815.6
2018-Feb-19 11:59N 34°30' E 138°36'715.5
2018-Feb-19 11:30N 34°31' E 138°45'815.4
2018-Feb-19 11:00N 34°31' E 138°54'815.0
2018-Feb-19 10:30N 34°36' E 139°01'1117.5
2018-Feb-19 09:53N 34°45' E 139°09'616.8
2018-Feb-19 09:30N 34°50' E 139°13'816.3
2018-Feb-19 09:00N 34°55' E 139°21'816.3
2018-Feb-19 08:30N 34°59' E 139°29'816.3
2018-Feb-19 08:00N 35°03' E 139°38'815.9
2018-Feb-19 07:30N 35°09' E 139°44'612.5
2018-Feb-19 07:01N 35°15' E 139°46'611.8
2018-Feb-19 06:31N 35°20' E 139°43'612.2
2018-Feb-19 06:01N 35°26' E 139°42'1 2.5
2018-Feb-19 05:30N 35°27' E 139°41'0 0.0
2018-Feb-19 05:00N 35°27' E 139°41'0 0.0
2018-Feb-19 04:30N 35°27' E 139°41'0 0.0
2018-Feb-19 04:00N 35°27' E 139°41'0 0.0
2018-Feb-19 03:30N 35°27' E 139°41'0 0.0
2018-Feb-19 03:00N 35°27' E 139°41'0 0.0
2018-Feb-19 02:30N 35°27' E 139°41'0 0.0
2018-Feb-19 02:00N 35°27' E 139°41'0 0.0
2018-Feb-19 01:30N 35°27' E 139°41'0 0.0
2018-Feb-19 01:00N 35°27' E 139°41'0 0.0
2018-Feb-19 00:30N 35°27' E 139°41'0 0.0
2018-Feb-19 00:01N 35°27' E 139°41'0 0.0
2018-Feb-18 23:30N 35°27' E 139°41'0 0.0
2018-Feb-18 23:00N 35°27' E 139°41'0 0.0
2018-Feb-18 22:30N 35°27' E 139°41'0 0.0
2018-Feb-18 22:00N 35°27' E 139°41'2 3.9
2018-Feb-18 21:30N 35°26' E 139°43'611.7
2018-Feb-18 21:00N 35°20' E 139°43'612.4
2018-Feb-18 20:30N 35°14' E 139°47'510.8
2018-Feb-18 20:00N 35°09' E 139°47'510.0
2018-Feb-18 19:31N 35°04' E 139°45'815.4
2018-Feb-18 18:59N 34°56' E 139°42'1019.3
2018-Feb-18 18:28N 34°46' E 139°42'1019.2
2018-Feb-18 17:56N 34°37' E 139°39'1018.8
2018-Feb-18 17:25N 34°27' E 139°36'3 5.7
2018-Feb-18 16:50N 34°24' E 139°34'616.4
2018-Feb-18 16:27N 34°30' E 139°29'817.1
2018-Feb-18 16:00N 34°35' E 139°22'917.7
2018-Feb-18 15:30N 34°34' E 139°12'918.2
2018-Feb-18 15:00N 34°32' E 139°01'918.5
2018-Feb-18 14:30N 34°31' E 138°50'918.3
2018-Feb-18 13:59N 34°30' E 138°38'1018.1
2018-Feb-18 13:28N 34°28' E 138°27'918.1
2018-Feb-18 12:58N 34°27' E 138°16'1018.5
2018-Feb-18 12:26N 34°24' E 138°05'93618.3
2018-Feb-16 09:12N 24°12' E 124°33'718.5
2018-Feb-16 08:48N 24°09' E 124°26'2118.4
2018-Feb-16 07:41N 24°02' E 124°05'319.3
2018-Feb-16 07:30N 24°01' E 124°01'919.2
2018-Feb-16 07:00N 23°57' E 123°52'62219.3
2018-Feb-14 22:48N 14°05' E 120°31'2417.9
2018-Feb-14 21:29N 13°42' E 120°40'12 0.6
2018-Feb-13 23:44N 13°52' E 120°33'520.4
2018-Feb-13 23:29N 13°58' E 120°33'2919.6
2018-Feb-13 22:01N 14°22' E 120°18'016.0
2018-Feb-13 22:01N 14°22' E 120°18'1119.8
2018-Feb-13 21:28N 14°31' E 120°11'920.1
2018-Feb-13 21:00N 14°38' E 120°05'1019.7
2018-Feb-13 20:31N 14°46' E 119°59'11117.8
2018-Feb-13 14:16N 16°37' E 119°58'  

Dump ship's entire track history